Time,TemperatureF,DewpointF,PressureIn,WindDirection,WindDirectionDegrees,WindSpeedMPH,WindSpeedGustMPH,Humidity,HourlyPrecipIn,Conditions,Clouds,dailyrainin,SoftwareType,DateUTC
2013-09-17 00:00:00,41.9,36.8,30.26,SE,135,0.0,0.0,82,0.00,CLR,,0.00,WeatherDisplay:10.37,2013-09-17 05:00:00,
2013-09-17 00:05:00,41.9,37.1,30.26,SE,135,0.0,0.0,83,0.00,CLR,,0.00,WeatherDisplay:10.37,2013-09-17 05:05:00,
2013-09-17 00:10:00,41.7,36.9,30.26,SSE,158,0.0,0.0,83,0.00,CLR,,0.00,WeatherDisplay:10.37,2013-09-17 05:10:00,
2013-09-17 00:15:00,41.7,36.9,30.25,ESE,112,0.0,0.0,83,0.00,CLR,,0.00,WeatherDisplay:10.37,2013-09-17 05:15:00,
2013-09-17 00:20:00,41.5,36.7,30.25,ESE,112,0.0,0.0,83,0.00,CLR,,0.00,WeatherDisplay:10.37,2013-09-17 05:20:00,
2013-09-17 00:25:00,41.4,36.9,30.25,ESE,112,0.0,0.0,84,0.00,CLR,,0.00,WeatherDisplay:10.37,2013-09-17 05:25:00,
2013-09-17 00:30:00,41.4,37.5,30.25,ESE,112,0.0,0.0,86,0.00,CLR,,0.00,WeatherDisplay:10.37,2013-09-17 05:30:00,
2013-09-17 00:35:00,41.4,37.8,30.25,SE,135,0.0,0.0,87,0.00,CLR,,0.00,WeatherDisplay:10.37,2013-09-17 05:35:00,
2013-09-17 00:40:00,41.4,37.8,30.25,SSE,158,0.0,0.0,87,0.00,CLR,,0.00,WeatherDisplay:10.37,2013-09-17 05:40:00,
2013-09-17 00:45:00,41.2,37.6,30.25,SSW,202,0.0,0.0,87,0.00,CLR,,0.00,WeatherDisplay:10.37,2013-09-17 05:45:00,
2013-09-17 00:50:00,41.0,37.4,30.25,SSE,158,0.0,0.0,87,0.00,CLR,,0.00,WeatherDisplay:10.37,2013-09-17 05:50:00,
2013-09-17 00:55:00,41.0,37.4,30.25,SSE,158,0.0,0.0,87,0.00,CLR,,0.00,WeatherDisplay:10.37,2013-09-17 05:55:00,
2013-09-17 01:00:00,41.0,37.4,30.25,SSE,158,0.0,0.0,87,0.00,CLR,,0.00,WeatherDisplay:10.37,2013-09-17 06:00:00,
2013-09-17 01:05:00,41.0,37.4,30.25,SSE,158,0.0,0.0,87,0.00,CLR,,0.00,WeatherDisplay:10.37,2013-09-17 06:05:00,
2013-09-17 01:10:00,40.1,36.2,30.25,ESE,112,0.0,0.0,86,0.00,CLR,,0.00,WeatherDisplay:10.37,2013-09-17 06:10:00,
2013-09-17 01:15:00,40.1,36.5,30.25,SSE,158,0.0,0.0,87,0.00,CLR,,0.00,WeatherDisplay:10.37,2013-09-17 06:15:00,
2013-09-17 01:20:00,40.1,36.8,30.25,ESE,112,0.0,0.0,88,0.00,CLR,,0.00,WeatherDisplay:10.37,2013-09-17 06:20:00,
2013-09-17 01:25:00,40.1,37.1,30.25,SE,135,0.0,0.0,89,0.00,CLR,,0.00,WeatherDisplay:10.37,2013-09-17 06:25:00,
2013-09-17 01:30:00,40.1,37.1,30.25,ESE,112,0.0,0.0,89,0.00,CLR,,0.00,WeatherDisplay:10.37,2013-09-17 06:30:00,
2013-09-17 01:35:00,40.1,37.4,30.25,SE,135,0.0,0.0,90,0.00,CLR,,0.00,WeatherDisplay:10.37,2013-09-17 06:35:00,
2013-09-17 01:40:00,40.1,37.4,30.25,ESE,112,0.0,0.0,90,0.00,CLR,,0.00,WeatherDisplay:10.37,2013-09-17 06:40:00,
2013-09-17 01:45:00,39.9,37.2,30.25,SE,135,0.0,0.0,90,0.00,CLR,,0.00,WeatherDisplay:10.37,2013-09-17 06:45:00,
2013-09-17 01:50:00,39.9,37.2,30.25,SE,135,0.0,0.0,90,0.00,CLR,,0.00,WeatherDisplay:10.37,2013-09-17 06:50:00,
2013-09-17 01:55:00,39.9,37.2,30.25,East,90,0.0,0.0,90,0.00,CLR,,0.00,WeatherDisplay:10.37,2013-09-17 06:55:00,
2013-09-17 02:00:00,39.9,37.5,30.25,ESE,112,0.0,0.0,91,0.00,CLR,,0.00,WeatherDisplay:10.37,2013-09-17 07:00:00,
2013-09-17 02:05:00,39.9,37.5,30.25,SW,225,0.0,0.0,91,0.00,CLR,,0.00,WeatherDisplay:10.37,2013-09-17 07:05:00,
2013-09-17 02:10:00,39.7,37.6,30.25,SW,225,0.0,0.0,92,0.00,CLR,,0.00,WeatherDisplay:10.37,2013-09-17 07:10:00,
2013-09-17 02:15:00,39.7,37.6,30.26,SE,135,0.0,0.0,92,0.00,CLR,,0.00,WeatherDisplay:10.37,2013-09-17 07:15:00,
2013-09-17 02:20:00,39.6,37.5,30.26,ESE,112,0.0,0.0,92,0.00,CLR,,0.00,WeatherDisplay:10.37,2013-09-17 07:20:00,
2013-09-17 02:25:00,39.6,37.5,30.25,SE,135,0.0,0.0,92,0.00,CLR,,0.00,WeatherDisplay:10.37,2013-09-17 07:25:00,
2013-09-17 02:30:00,39.6,37.5,30.25,ESE,112,0.0,0.0,92,0.00,CLR,,0.00,WeatherDisplay:10.37,2013-09-17 07:30:00,
2013-09-17 02:35:00,39.6,37.5,30.25,ESE,112,0.0,0.0,92,0.00,CLR,,0.00,WeatherDisplay:10.37,2013-09-17 07:35:00,
2013-09-17 02:40:00,39.6,37.7,30.25,SE,135,0.0,0.0,93,0.00,CLR,,0.00,WeatherDisplay:10.37,2013-09-17 07:40:00,
2013-09-17 02:45:00,39.6,37.7,30.25,SSE,158,0.0,0.0,93,0.00,CLR,,0.00,WeatherDisplay:10.37,2013-09-17 07:45:00,
2013-09-17 02:50:00,39.4,37.5,30.25,ESE,112,0.0,0.0,93,0.00,CLR,,0.00,WeatherDisplay:10.37,2013-09-17 07:50:00,
2013-09-17 02:55:00,39.2,37.3,30.25,SE,135,0.0,0.0,93,0.00,CLR,,0.00,WeatherDisplay:10.37,2013-09-17 07:55:00,
2013-09-17 03:00:00,39.2,37.3,30.25,SE,135,0.0,0.0,93,0.00,CLR,,0.00,WeatherDisplay:10.37,2013-09-17 08:00:00,
2013-09-17 03:05:00,39.2,37.3,30.25,ESE,112,0.0,0.0,93,0.00,CLR,,0.00,WeatherDisplay:10.37,2013-09-17 08:05:00,
2013-09-17 03:10:00,39.0,37.1,30.25,SE,135,0.0,0.0,93,0.00,CLR,,0.00,WeatherDisplay:10.37,2013-09-17 08:10:00,
2013-09-17 03:15:00,39.0,37.1,30.25,SE,135,0.0,0.0,93,0.00,CLR,,0.00,WeatherDisplay:10.37,2013-09-17 08:15:00,
2013-09-17 03:20:00,39.0,37.1,30.25,SE,135,0.0,0.0,93,0.00,CLR,,0.00,WeatherDisplay:10.37,2013-09-17 08:20:00,
2013-09-17 03:25:00,39.0,37.1,30.25,ESE,112,0.0,0.0,93,0.00,CLR,,0.00,WeatherDisplay:10.37,2013-09-17 08:25:00,
2013-09-17 03:30:00,39.2,37.3,30.25,SSE,158,0.0,0.0,93,0.00,CLR,,0.00,WeatherDisplay:10.37,2013-09-17 08:30:00,
2013-09-17 03:35:00,39.4,37.5,30.25,ESE,112,0.0,0.0,93,0.00,CLR,,0.00,WeatherDisplay:10.37,2013-09-17 08:35:00,
2013-09-17 03:40:00,39.4,37.5,30.25,SSE,158,0.0,0.0,93,0.00,CLR,,0.00,WeatherDisplay:10.37,2013-09-17 08:40:00,
2013-09-17 03:45:00,39.6,37.7,30.25,SSE,158,0.0,0.0,93,0.00,CLR,,0.00,WeatherDisplay:10.37,2013-09-17 08:45:00,
2013-09-17 03:50:00,39.7,38.1,30.25,East,90,0.0,0.0,94,0.00,CLR,,0.00,WeatherDisplay:10.37,2013-09-17 08:50:00,
2013-09-17 03:55:00,39.7,38.1,30.25,SE,135,0.0,0.0,94,0.00,CLR,,0.00,WeatherDisplay:10.37,2013-09-17 08:55:00,
2013-09-17 04:00:00,39.7,38.1,30.25,ESE,112,0.0,0.0,94,0.00,CLR,,0.00,WeatherDisplay:10.37,2013-09-17 09:00:00,
2013-09-17 04:05:00,39.9,38.3,30.25,SE,135,0.0,0.0,94,0.00,CLR,,0.00,WeatherDisplay:10.37,2013-09-17 09:05:00,
2013-09-17 04:10:00,39.9,38.3,30.25,SE,135,0.0,0.0,94,0.00,CLR,,0.00,WeatherDisplay:10.37,2013-09-17 09:10:00,
2013-09-17 04:15:00,39.6,38.0,30.24,ESE,112,0.0,0.0,94,0.00,CLR,,0.00,WeatherDisplay:10.37,2013-09-17 09:15:00,
2013-09-17 04:20:00,39.6,38.0,30.24,SE,135,0.0,0.0,94,0.00,CLR,,0.00,WeatherDisplay:10.37,2013-09-17 09:20:00,
2013-09-17 04:25:00,39.6,38.0,30.24,SSE,158,0.0,0.0,94,0.00,CLR,,0.00,WeatherDisplay:10.37,2013-09-17 09:25:00,
2013-09-17 04:30:00,39.6,38.0,30.24,SSE,158,0.0,0.0,94,0.00,CLR,,0.00,WeatherDisplay:10.37,2013-09-17 09:30:00,
2013-09-17 04:35:00,39.2,37.6,30.24,SE,135,0.0,0.0,94,0.00,CLR,,0.00,WeatherDisplay:10.37,2013-09-17 09:35:00,
2013-09-17 04:40:00,39.2,37.6,30.24,East,90,0.0,0.0,94,0.00,CLR,,0.00,WeatherDisplay:10.37,2013-09-17 09:40:00,
2013-09-17 04:45:00,39.4,37.8,30.24,ESE,112,0.0,0.0,94,0.00,CLR,,0.00,WeatherDisplay:10.37,2013-09-17 09:45:00,
2013-09-17 04:50:00,39.4,37.8,30.24,ESE,112,0.0,0.0,94,0.00,CLR,,0.00,WeatherDisplay:10.37,2013-09-17 09:50:00,
2013-09-17 04:55:00,39.4,37.8,30.24,SE,135,0.0,0.0,94,0.00,CLR,,0.00,WeatherDisplay:10.37,2013-09-17 09:55:00,
2013-09-17 05:00:00,39.4,37.8,30.24,ESE,112,0.0,0.0,94,0.00,CLR,,0.00,WeatherDisplay:10.37,2013-09-17 10:00:00,
2013-09-17 05:05:00,39.4,37.8,30.24,SE,135,0.0,0.0,94,0.00,CLR,,0.00,WeatherDisplay:10.37,2013-09-17 10:05:00,
2013-09-17 05:10:00,39.4,37.8,30.24,SSE,158,0.0,0.0,94,0.00,CLR,,0.00,WeatherDisplay:10.37,2013-09-17 10:10:00,
2013-09-17 05:15:00,39.6,38.0,30.23,ESE,112,0.0,0.0,94,0.00,CLR,,0.00,WeatherDisplay:10.37,2013-09-17 10:15:00,
2013-09-17 05:20:00,39.9,38.3,30.23,East,90,0.0,0.0,94,0.00,CLR,,0.00,WeatherDisplay:10.37,2013-09-17 10:20:00,
2013-09-17 05:25:00,41.0,39.7,30.23,SE,135,0.0,0.0,95,0.00,SCT,,0.00,WeatherDisplay:10.37,2013-09-17 10:25:00,
2013-09-17 05:30:00,41.7,40.4,30.23,WSW,248,0.0,0.0,95,0.00,SCT,,0.00,WeatherDisplay:10.37,2013-09-17 10:30:00,
2013-09-17 05:35:00,41.9,40.6,30.23,SSE,158,0.0,0.0,95,0.00,SCT,,0.00,WeatherDisplay:10.37,2013-09-17 10:35:00,
2013-09-17 05:40:00,43.0,41.7,30.22,SSE,158,0.2,2.3,95,0.00,SCT,,0.00,WeatherDisplay:10.37,2013-09-17 10:40:00,
2013-09-17 05:45:00,42.8,41.5,30.22,NW,315,0.0,0.0,95,0.00,OVC,,0.00,WeatherDisplay:10.37,2013-09-17 10:45:00,
2013-09-17 05:50:00,43.2,41.9,30.22,NW,315,0.0,0.0,95,0.00,OVC,,0.00,WeatherDisplay:10.37,2013-09-17 10:50:00,
2013-09-17 05:55:00,43.5,42.2,30.22,NNW,338,0.5,2.3,95,0.00,OVC,,0.00,WeatherDisplay:10.37,2013-09-17 10:55:00,
2013-09-17 06:00:00,43.5,42.2,30.22,NNW,338,0.0,0.0,95,0.00,OVC,,0.00,WeatherDisplay:10.37,2013-09-17 11:00:00,
2013-09-17 06:05:00,43.5,42.2,30.21,NNW,338,0.0,0.0,95,0.00,OVC,,0.00,WeatherDisplay:10.37,2013-09-17 11:05:00,
2013-09-17 06:10:00,43.7,42.4,30.21,NNW,338,0.0,0.0,95,0.00,OVC,,0.00,WeatherDisplay:10.37,2013-09-17 11:10:00,
2013-09-17 06:15:00,43.7,42.4,30.21,NNW,338,0.0,1.2,95,0.00,OVC,,0.00,WeatherDisplay:10.37,2013-09-17 11:15:00,
2013-09-17 06:20:00,43.7,42.4,30.21,NNW,338,0.0,0.0,95,0.00,OVC,,0.00,WeatherDisplay:10.37,2013-09-17 11:20:00,
2013-09-17 06:25:00,43.7,42.4,30.21,NNW,338,0.0,0.0,95,0.00,OVC,,0.00,WeatherDisplay:10.37,2013-09-17 11:25:00,
2013-09-17 06:30:00,43.7,42.4,30.21,NNW,338,0.0,0.0,95,0.00,OVC,,0.00,WeatherDisplay:10.37,2013-09-17 11:30:00,
2013-09-17 06:35:00,43.7,42.4,30.21,NNW,338,0.0,0.0,95,0.00,OVC,,0.00,WeatherDisplay:10.37,2013-09-17 11:35:00,
2013-09-17 06:40:00,43.7,42.4,30.21,NNW,338,0.0,0.0,95,0.00,OVC,,0.00,WeatherDisplay:10.37,2013-09-17 11:40:00,
2013-09-17 06:45:00,43.7,42.4,30.21,NNW,338,0.0,0.0,95,0.00,OVC,,0.00,WeatherDisplay:10.37,2013-09-17 11:45:00,
2013-09-17 06:50:00,43.5,42.2,30.20,NNW,338,0.0,0.0,95,0.00,OVC,,0.00,WeatherDisplay:10.37,2013-09-17 11:50:00,
2013-09-17 06:55:00,43.5,42.2,30.20,NNW,338,0.0,0.0,95,0.00,OVC,,0.00,WeatherDisplay:10.37,2013-09-17 11:55:00,
2013-09-17 07:00:00,43.7,42.4,30.20,NNW,338,0.0,0.0,95,0.00,OVC,,0.00,WeatherDisplay:10.37,2013-09-17 12:00:00,
2013-09-17 07:05:00,43.7,42.4,30.20,NNW,338,0.0,0.0,95,0.00,OVC,,0.00,WeatherDisplay:10.37,2013-09-17 12:05:00,
2013-09-17 07:10:00,43.7,42.4,30.20,NNW,338,0.0,0.0,95,0.00,OVC,,0.00,WeatherDisplay:10.37,2013-09-17 12:10:00,
2013-09-17 07:15:00,44.1,42.8,30.20,NNW,338,2.4,2.7,95,0.00,OVC,,0.00,WeatherDisplay:10.37,2013-09-17 12:15:00,
2013-09-17 07:20:00,44.4,43.1,30.20,NNW,338,1.5,1.5,95,0.00,OVC,,0.00,WeatherDisplay:10.37,2013-09-17 12:20:00,
2013-09-17 07:25:00,44.6,43.3,30.20,NNW,338,0.5,2.2,95,0.00,OVC,,0.00,WeatherDisplay:10.37,2013-09-17 12:25:00,
2013-09-17 07:30:00,45.1,43.8,30.20,NNW,338,1.6,1.6,95,0.00,OVC,,0.00,WeatherDisplay:10.37,2013-09-17 12:30:00,
2013-09-17 07:35:00,45.5,44.2,30.20,NNW,338,2.3,2.3,95,0.00,OVC,,0.00,WeatherDisplay:10.37,2013-09-17 12:35:00,
2013-09-17 07:40:00,46.0,44.6,30.19,NNW,338,0.0,0.0,95,0.00,OVC,,0.00,WeatherDisplay:10.37,2013-09-17 12:40:00,
2013-09-17 07:45:00,46.8,44.6,30.19,SE,135,1.0,2.2,92,0.00,OVC,,0.00,WeatherDisplay:10.37,2013-09-17 12:45:00,
2013-09-17 07:50:00,48.0,46.1,30.19,ESE,112,0.0,0.0,93,0.00,OVC,,0.00,WeatherDisplay:10.37,2013-09-17 12:50:00,
2013-09-17 07:55:00,48.9,46.7,30.19,SE,135,0.9,2.3,92,0.00,OVC,,0.00,WeatherDisplay:10.37,2013-09-17 12:55:00,
2013-09-17 08:00:00,50.2,47.4,30.19,SSE,158,0.0,1.2,90,0.00,OVC,,0.00,WeatherDisplay:10.37,2013-09-17 13:00:00,
2013-09-17 08:05:00,50.7,47.0,30.19,SE,135,1.4,2.3,87,0.00,OVC,,0.00,WeatherDisplay:10.37,2013-09-17 13:05:00,
2013-09-17 08:10:00,51.1,47.1,30.19,SE,135,2.0,2.3,86,0.00,OVC,,0.00,WeatherDisplay:10.37,2013-09-17 13:10:00,
2013-09-17 08:15:00,51.4,46.7,30.19,SSE,158,0.0,0.0,84,0.00,OVC,,0.00,WeatherDisplay:10.37,2013-09-17 13:15:00,
2013-09-17 08:20:00,52.0,47.3,30.19,SE,135,0.8,2.3,84,0.00,OVC,,0.00,WeatherDisplay:10.37,2013-09-17 13:20:00,
2013-09-17 08:25:00,52.5,47.5,30.18,SE,135,2.9,3.5,83,0.00,OVC,,0.00,WeatherDisplay:10.37,2013-09-17 13:25:00,
2013-09-17 08:30:00,53.1,47.7,30.18,SE,135,2.0,2.7,82,0.00,OVC,,0.00,WeatherDisplay:10.37,2013-09-17 13:30:00,
2013-09-17 08:35:00,53.4,47.7,30.18,SE,135,2.3,2.3,81,0.00,OVC,,0.00,WeatherDisplay:10.37,2013-09-17 13:35:00,
2013-09-17 08:40:00,54.0,48.0,30.18,South,180,0.0,1.2,80,0.00,OVC,,0.00,WeatherDisplay:10.37,2013-09-17 13:40:00,
2013-09-17 08:45:00,54.1,47.7,30.18,NNW,338,0.6,2.3,79,0.00,OVC,,0.00,WeatherDisplay:10.37,2013-09-17 13:45:00,
2013-09-17 08:50:00,54.5,47.8,30.18,SSW,202,1.1,2.3,78,0.00,OVC,,0.00,WeatherDisplay:10.37,2013-09-17 13:50:00,
2013-09-17 08:55:00,54.9,47.8,30.18,ESE,112,2.2,3.5,77,0.00,OVC,,0.00,WeatherDisplay:10.37,2013-09-17 13:55:00,
2013-09-17 09:00:00,55.2,47.4,30.17,SE,135,3.3,3.7,75,0.00,OVC,,0.00,WeatherDisplay:10.37,2013-09-17 14:00:00,
2013-09-17 09:05:00,55.4,47.6,30.17,SSW,202,1.8,3.7,75,0.00,OVC,,0.00,WeatherDisplay:10.37,2013-09-17 14:05:00,
2013-09-17 09:10:00,55.8,47.6,30.17,SSE,158,2.8,3.7,74,0.00,OVC,,0.00,WeatherDisplay:10.37,2013-09-17 14:10:00,
2013-09-17 09:15:00,55.8,47.6,30.17,SSE,158,0.0,0.0,74,0.00,OVC,,0.00,WeatherDisplay:10.37,2013-09-17 14:15:00,
2013-09-17 09:20:00,55.8,47.6,30.17,SSE,158,0.0,0.0,74,0.00,OVC,,0.00,WeatherDisplay:10.37,2013-09-17 14:20:00,
2013-09-17 09:25:00,55.8,47.6,30.17,SSE,158,0.0,0.0,74,0.00,OVC,,0.00,WeatherDisplay:10.37,2013-09-17 14:25:00,
2013-09-17 09:30:00,55.8,47.6,30.17,SSE,158,0.0,0.0,74,0.00,OVC,,0.00,WeatherDisplay:10.37,2013-09-17 14:30:00,
2013-09-17 09:35:00,55.8,47.6,30.17,SSE,158,0.0,0.0,74,0.00,OVC,,0.00,WeatherDisplay:10.37,2013-09-17 14:35:00,
2013-09-17 09:40:00,55.8,47.6,30.17,SSE,158,0.0,0.0,74,0.00,OVC,,0.00,WeatherDisplay:10.37,2013-09-17 14:40:00,
2013-09-17 09:45:00,55.8,47.6,30.17,SSE,158,0.0,0.0,74,0.00,OVC,,0.00,WeatherDisplay:10.37,2013-09-17 14:45:00,
2013-09-17 09:50:00,55.8,47.6,30.17,SSE,158,0.0,0.0,74,0.00,OVC,,0.00,WeatherDisplay:10.37,2013-09-17 14:50:00,
2013-09-17 09:55:00,55.8,47.6,30.17,SSE,158,0.0,0.0,74,0.00,OVC,,0.00,WeatherDisplay:10.37,2013-09-17 14:55:00,
2013-09-17 10:00:00,55.8,47.6,30.17,SSE,158,0.0,0.0,74,0.00,OVC,,0.00,WeatherDisplay:10.37,2013-09-17 15:00:00,
2013-09-17 10:05:00,55.8,47.6,30.17,SSE,158,0.0,0.0,74,0.00,OVC,,0.00,WeatherDisplay:10.37,2013-09-17 15:05:00,
2013-09-17 10:10:00,55.8,47.6,30.17,SSE,158,0.0,0.0,74,0.00,OVC,,0.00,WeatherDisplay:10.37,2013-09-17 15:10:00,
2013-09-17 10:15:00,55.8,47.6,30.17,SSE,158,0.0,0.0,74,0.00,OVC,,0.00,WeatherDisplay:10.37,2013-09-17 15:15:00,
2013-09-17 10:20:00,55.8,47.6,30.17,SSE,158,0.0,0.0,74,0.00,OVC,,0.00,WeatherDisplay:10.37,2013-09-17 15:20:00,
2013-09-17 10:25:00,55.8,47.6,30.17,SSE,158,0.0,0.0,74,0.00,OVC,,0.00,WeatherDisplay:10.37,2013-09-17 15:25:00,
2013-09-17 10:30:00,55.8,47.6,30.17,SSE,158,0.0,0.0,74,0.00,OVC,,0.00,WeatherDisplay:10.37,2013-09-17 15:30:00,
2013-09-17 10:35:00,55.8,47.6,30.17,SSE,158,0.0,0.0,74,0.00,OVC,,0.00,WeatherDisplay:10.37,2013-09-17 15:35:00,
2013-09-17 10:40:00,55.8,47.6,30.17,SSE,158,0.0,0.0,74,0.00,OVC,,0.00,WeatherDisplay:10.37,2013-09-17 15:40:00,
2013-09-17 10:45:00,55.8,47.6,30.17,SSE,158,0.0,0.0,74,0.00,OVC,,0.00,WeatherDisplay:10.37,2013-09-17 15:45:00,
2013-09-17 10:50:00,55.8,47.6,30.17,SSE,158,0.0,0.0,74,0.00,OVC,,0.00,WeatherDisplay:10.37,2013-09-17 15:50:00,
2013-09-17 10:55:00,55.8,47.6,30.17,SSE,158,0.0,0.0,74,0.00,OVC,,0.00,WeatherDisplay:10.37,2013-09-17 15:55:00,
2013-09-17 11:00:00,55.8,47.6,30.17,SSE,158,0.0,0.0,74,0.00,OVC,,0.00,WeatherDisplay:10.37,2013-09-17 16:00:00,
2013-09-17 11:05:00,55.8,47.6,30.17,SSE,158,0.0,0.0,74,0.00,OVC,,0.00,WeatherDisplay:10.37,2013-09-17 16:05:00,
2013-09-17 11:10:00,55.8,47.6,30.17,SSE,158,0.0,0.0,74,0.00,OVC,,0.00,WeatherDisplay:10.37,2013-09-17 16:10:00,
2013-09-17 11:15:00,55.8,47.6,30.17,SSE,158,0.0,0.0,74,0.00,OVC,,0.00,WeatherDisplay:10.37,2013-09-17 16:15:00,
2013-09-17 11:20:00,55.8,47.6,30.17,SSE,158,0.0,0.0,74,0.00,OVC,,0.00,WeatherDisplay:10.37,2013-09-17 16:20:00,
2013-09-17 11:25:00,55.8,47.6,30.17,SSE,158,0.0,0.0,74,0.00,OVC,,0.00,WeatherDisplay:10.37,2013-09-17 16:25:00,
2013-09-17 11:30:00,55.8,47.6,30.17,SSE,158,0.0,0.0,74,0.00,OVC,,0.00,WeatherDisplay:10.37,2013-09-17 16:30:00,
2013-09-17 11:35:00,55.8,47.6,30.17,SSE,158,0.0,0.0,74,0.00,OVC,,0.00,WeatherDisplay:10.37,2013-09-17 16:35:00,
2013-09-17 11:40:00,55.8,47.6,30.17,SSE,158,0.0,0.0,74,0.00,OVC,,0.00,WeatherDisplay:10.37,2013-09-17 16:40:00,
2013-09-17 11:45:00,55.8,47.6,30.17,SSE,158,0.0,0.0,74,0.00,OVC,,0.00,WeatherDisplay:10.37,2013-09-17 16:45:00,
2013-09-17 11:50:00,55.8,47.6,30.17,SSE,158,0.0,0.0,74,0.00,OVC,,0.00,WeatherDisplay:10.37,2013-09-17 16:50:00,
2013-09-17 11:55:00,55.8,47.6,30.17,SSE,158,0.0,0.0,74,0.00,OVC,,0.00,WeatherDisplay:10.37,2013-09-17 16:55:00,
2013-09-17 12:00:00,55.8,47.6,30.17,SSE,158,0.0,0.0,74,0.00,OVC,,0.00,WeatherDisplay:10.37,2013-09-17 17:00:00,
2013-09-17 12:05:00,55.8,47.6,30.17,SSE,158,0.0,0.0,74,0.00,SCT,,0.00,WeatherDisplay:10.37,2013-09-17 17:05:00,
2013-09-17 12:10:00,55.8,47.6,30.17,SSE,158,0.0,0.0,74,0.00,SCT,,0.00,WeatherDisplay:10.37,2013-09-17 17:10:00,
2013-09-17 12:15:00,55.8,47.6,30.17,SSE,158,0.0,0.0,74,0.00,SCT,,0.00,WeatherDisplay:10.37,2013-09-17 17:15:00,
2013-09-17 12:20:00,55.8,47.6,30.17,SSE,158,0.0,0.0,74,0.00,SCT,,0.00,WeatherDisplay:10.37,2013-09-17 17:20:00,
2013-09-17 12:25:00,55.8,47.6,30.17,SSE,158,0.0,0.0,74,0.00,CLR,,0.00,WeatherDisplay:10.37,2013-09-17 17:25:00,
2013-09-17 12:30:00,55.8,47.6,30.17,SSE,158,0.0,0.0,74,0.00,CLR,,0.00,WeatherDisplay:10.37,2013-09-17 17:30:00,
2013-09-17 12:35:00,55.8,47.6,30.17,SSE,158,0.0,0.0,74,0.00,CLR,,0.00,WeatherDisplay:10.37,2013-09-17 17:35:00,
2013-09-17 12:40:00,55.8,47.6,30.17,SSE,158,0.0,0.0,74,0.00,CLR,,0.00,WeatherDisplay:10.37,2013-09-17 17:40:00,
2013-09-17 12:45:00,55.8,47.6,30.17,SSE,158,0.0,0.0,74,0.00,CLR,,0.00,WeatherDisplay:10.37,2013-09-17 17:45:00,
2013-09-17 12:50:00,55.8,47.6,30.17,SSE,158,0.0,0.0,74,0.00,CLR,,0.00,WeatherDisplay:10.37,2013-09-17 17:50:00,
2013-09-17 12:55:00,55.8,47.6,30.17,SSE,158,0.0,0.0,74,0.00,CLR,,0.00,WeatherDisplay:10.37,2013-09-17 17:55:00,
2013-09-17 13:00:00,55.8,47.6,30.17,SSE,158,0.0,0.0,74,0.00,CLR,,0.00,WeatherDisplay:10.37,2013-09-17 18:00:00,
2013-09-17 13:05:00,55.8,47.6,30.17,SSE,158,0.0,0.0,74,0.00,CLR,,0.00,WeatherDisplay:10.37,2013-09-17 18:05:00,
2013-09-17 13:11:00,55.8,47.6,30.17,SSE,158,0.0,0.0,74,0.00,CLR,,0.00,WeatherDisplay:10.37,2013-09-17 18:11:00,
2013-09-17 13:16:00,55.8,47.6,30.17,SSE,158,0.0,0.0,74,0.00,SCT,,0.00,WeatherDisplay:10.37,2013-09-17 18:16:00,
2013-09-17 13:21:00,55.8,47.6,30.17,SSE,158,0.0,0.0,74,0.00,SCT,,0.00,WeatherDisplay:10.37,2013-09-17 18:21:00,
2013-09-17 13:26:00,55.8,47.6,30.17,SSE,158,0.0,0.0,74,0.00,SCT,,0.00,WeatherDisplay:10.37,2013-09-17 18:26:00,
2013-09-17 13:31:00,55.8,47.6,30.17,SSE,158,0.0,0.0,74,0.00,SCT,,0.00,WeatherDisplay:10.37,2013-09-17 18:31:00,
2013-09-17 13:36:00,55.8,47.6,30.17,SSE,158,0.0,0.0,74,0.00,SCT,,0.00,WeatherDisplay:10.37,2013-09-17 18:36:00,
2013-09-17 13:41:00,55.8,47.6,30.17,SSE,158,0.0,0.0,74,0.00,BKN,,0.00,WeatherDisplay:10.37,2013-09-17 18:41:00,
2013-09-17 13:46:00,55.8,47.6,30.17,SSE,158,0.0,0.0,74,0.00,BKN,,0.00,WeatherDisplay:10.37,2013-09-17 18:46:00,
2013-09-17 13:51:00,55.8,47.6,30.17,SSE,158,0.0,0.0,74,0.00,BKN,,0.00,WeatherDisplay:10.37,2013-09-17 18:51:00,
2013-09-17 13:56:00,55.8,47.6,30.17,SSE,158,0.0,0.0,74,0.00,BKN,,0.00,WeatherDisplay:10.37,2013-09-17 18:56:00,
2013-09-17 14:01:00,55.8,47.6,30.17,SSE,158,0.0,0.0,74,0.00,SCT,,0.00,WeatherDisplay:10.37,2013-09-17 19:01:00,
2013-09-17 14:06:00,55.8,47.6,30.17,SSE,158,0.0,0.0,74,0.00,SCT,,0.00,WeatherDisplay:10.37,2013-09-17 19:06:00,
2013-09-17 14:11:00,55.8,47.6,30.17,SSE,158,0.0,0.0,74,0.00,SCT,,0.00,WeatherDisplay:10.37,2013-09-17 19:11:00,
2013-09-17 14:16:00,55.8,47.6,30.17,SSE,158,0.0,0.0,74,0.00,SCT,,0.00,WeatherDisplay:10.37,2013-09-17 19:16:00,
2013-09-17 14:21:00,55.8,47.6,30.17,SSE,158,0.0,0.0,74,0.00,SCT,,0.00,WeatherDisplay:10.37,2013-09-17 19:21:00,
2013-09-17 14:26:00,55.8,47.6,30.17,SSE,158,0.0,0.0,74,0.00,SCT,,0.00,WeatherDisplay:10.37,2013-09-17 19:26:00,
2013-09-17 14:31:00,55.8,47.6,30.17,SSE,158,0.0,0.0,74,0.00,SCT,,0.00,WeatherDisplay:10.37,2013-09-17 19:31:00,
2013-09-17 14:36:00,55.8,47.6,30.17,SSE,158,0.0,0.0,74,0.00,SCT,,0.00,WeatherDisplay:10.37,2013-09-17 19:36:00,
2013-09-17 14:41:00,55.8,47.6,30.17,SSE,158,0.0,0.0,74,0.00,BKN,,0.00,WeatherDisplay:10.37,2013-09-17 19:41:00,
2013-09-17 14:46:00,55.8,47.6,30.17,SSE,158,0.0,0.0,74,0.00,BKN,,0.00,WeatherDisplay:10.37,2013-09-17 19:46:00,
2013-09-17 14:51:00,55.8,47.6,30.17,SSE,158,0.0,0.0,74,0.00,BKN,,0.00,WeatherDisplay:10.37,2013-09-17 19:51:00,
2013-09-17 14:56:00,55.8,47.6,30.17,SSE,158,0.0,0.0,74,0.00,BKN,,0.00,WeatherDisplay:10.37,2013-09-17 19:56:00,
2013-09-17 15:01:00,55.8,47.6,30.17,SSE,158,0.0,0.0,74,0.00,OVC,,0.00,WeatherDisplay:10.37,2013-09-17 20:01:00,
2013-09-17 15:06:00,55.8,47.6,30.17,SSE,158,0.0,0.0,74,0.00,OVC,,0.00,WeatherDisplay:10.37,2013-09-17 20:06:00,
2013-09-17 15:11:00,55.8,47.6,30.17,SSE,158,0.0,0.0,74,0.00,OVC,,0.00,WeatherDisplay:10.37,2013-09-17 20:11:00,
2013-09-17 15:16:00,55.8,47.6,30.17,SSE,158,0.0,0.0,74,0.00,OVC,,0.00,WeatherDisplay:10.37,2013-09-17 20:16:00,
2013-09-17 15:21:00,55.8,47.6,30.17,SSE,158,0.0,0.0,74,0.00,OVC,,0.00,WeatherDisplay:10.37,2013-09-17 20:21:00,
2013-09-17 15:26:00,55.8,47.6,30.17,SSE,158,0.0,0.0,74,0.00,OVC,,0.00,WeatherDisplay:10.37,2013-09-17 20:26:00,
2013-09-17 15:31:00,55.8,47.6,30.17,SSE,158,0.0,0.0,74,0.00,OVC,,0.00,WeatherDisplay:10.37,2013-09-17 20:31:00,
2013-09-17 15:36:00,55.8,47.6,30.17,SSE,158,0.0,0.0,74,0.00,OVC,,0.00,WeatherDisplay:10.37,2013-09-17 20:36:00,
2013-09-17 15:41:00,55.8,47.6,30.17,SSE,158,0.0,0.0,74,0.00,OVC,,0.00,WeatherDisplay:10.37,2013-09-17 20:41:00,
2013-09-17 15:46:00,55.8,47.6,30.17,SSE,158,0.0,0.0,74,0.00,OVC,,0.00,WeatherDisplay:10.37,2013-09-17 20:46:00,
2013-09-17 15:51:00,55.8,47.6,30.17,SSE,158,0.0,0.0,74,0.00,OVC,,0.00,WeatherDisplay:10.37,2013-09-17 20:51:00,
2013-09-17 15:56:00,55.8,47.6,30.17,SSE,158,0.0,0.0,74,0.00,OVC,,0.00,WeatherDisplay:10.37,2013-09-17 20:56:00,
2013-09-17 16:01:00,55.8,47.6,30.17,SSE,158,0.0,0.0,74,0.00,OVC,,0.00,WeatherDisplay:10.37,2013-09-17 21:01:00,
2013-09-17 16:06:00,55.8,47.6,30.17,SSE,158,0.0,0.0,74,0.00,OVC,,0.00,WeatherDisplay:10.37,2013-09-17 21:06:00,
2013-09-17 16:11:00,55.8,47.6,30.17,SSE,158,0.0,0.0,74,0.00,OVC,,0.00,WeatherDisplay:10.37,2013-09-17 21:11:00,
2013-09-17 16:16:00,55.8,47.6,30.17,SSE,158,0.0,0.0,74,0.00,OVC,,0.00,WeatherDisplay:10.37,2013-09-17 21:16:00,
2013-09-17 16:21:00,55.8,47.6,30.17,SSE,158,0.0,0.0,74,0.00,OVC,,0.00,WeatherDisplay:10.37,2013-09-17 21:21:00,
2013-09-17 16:26:00,55.8,47.6,30.17,SSE,158,0.0,0.0,74,0.00,OVC,,0.00,WeatherDisplay:10.37,2013-09-17 21:26:00,
2013-09-17 16:31:00,55.8,47.6,30.17,SSE,158,0.0,0.0,74,0.00,OVC,,0.00,WeatherDisplay:10.37,2013-09-17 21:31:00,
2013-09-17 16:36:00,55.8,47.6,30.17,SSE,158,0.0,0.0,74,0.00,OVC,,0.00,WeatherDisplay:10.37,2013-09-17 21:36:00,
2013-09-17 16:41:00,55.8,47.6,30.17,SSE,158,0.0,0.0,74,0.00,OVC,,0.00,WeatherDisplay:10.37,2013-09-17 21:41:00,
2013-09-17 16:46:00,55.8,47.6,30.17,SSE,158,0.0,0.0,74,0.00,OVC,,0.00,WeatherDisplay:10.37,2013-09-17 21:46:00,
2013-09-17 16:51:00,55.8,47.6,30.17,SSE,158,0.0,0.0,74,0.00,OVC,,0.00,WeatherDisplay:10.37,2013-09-17 21:51:00,
2013-09-17 16:56:00,55.8,47.6,30.17,SSE,158,0.0,0.0,74,0.00,OVC,,0.00,WeatherDisplay:10.37,2013-09-17 21:56:00,
2013-09-17 17:01:00,55.8,47.6,30.17,SSE,158,0.0,0.0,74,0.00,OVC,,0.00,WeatherDisplay:10.37,2013-09-17 22:01:00,
2013-09-17 17:06:00,55.8,47.6,30.17,SSE,158,0.0,0.0,74,0.00,OVC,,0.00,WeatherDisplay:10.37,2013-09-17 22:06:00,
2013-09-17 17:11:00,55.8,47.6,30.17,SSE,158,0.0,0.0,74,0.00,OVC,,0.00,WeatherDisplay:10.37,2013-09-17 22:11:00,
2013-09-17 17:16:00,55.8,47.6,30.17,SSE,158,0.0,0.0,74,0.00,OVC,,0.00,WeatherDisplay:10.37,2013-09-17 22:16:00,
2013-09-17 17:21:00,55.8,47.6,30.17,SSE,158,0.0,0.0,74,0.00,OVC,,0.00,WeatherDisplay:10.37,2013-09-17 22:21:00,
2013-09-17 17:26:00,55.8,47.6,30.17,SSE,158,0.0,0.0,74,0.00,OVC,,0.00,WeatherDisplay:10.37,2013-09-17 22:26:00,
2013-09-17 17:31:00,55.8,47.6,30.17,SSE,158,0.0,0.0,74,0.00,OVC,,0.00,WeatherDisplay:10.37,2013-09-17 22:31:00,
2013-09-17 17:36:00,55.8,47.6,30.17,SSE,158,0.0,0.0,74,0.00,OVC,,0.00,WeatherDisplay:10.37,2013-09-17 22:36:00,
2013-09-17 17:41:00,55.8,47.6,30.17,SSE,158,0.0,0.0,74,0.00,OVC,,0.00,WeatherDisplay:10.37,2013-09-17 22:41:00,
2013-09-17 17:46:00,55.8,47.6,30.17,SSE,158,0.0,0.0,74,0.00,OVC,,0.00,WeatherDisplay:10.37,2013-09-17 22:46:00,
2013-09-17 17:51:00,55.8,47.6,30.17,SSE,158,0.0,0.0,74,0.00,OVC,,0.00,WeatherDisplay:10.37,2013-09-17 22:51:00,
2013-09-17 17:56:00,55.8,47.6,30.17,SSE,158,0.0,0.0,74,0.00,OVC,,0.00,WeatherDisplay:10.37,2013-09-17 22:56:00,
2013-09-17 18:01:00,55.8,47.6,30.17,SSE,158,0.0,0.0,74,0.00,OVC,,0.00,WeatherDisplay:10.37,2013-09-17 23:01:00,
2013-09-17 18:06:00,55.8,47.6,30.17,SSE,158,0.0,0.0,74,0.00,OVC,,0.00,WeatherDisplay:10.37,2013-09-17 23:06:00,
2013-09-17 18:11:00,55.8,47.6,30.17,SSE,158,0.0,0.0,74,0.00,OVC,,0.00,WeatherDisplay:10.37,2013-09-17 23:11:00,
2013-09-17 18:16:00,55.8,47.6,30.17,SSE,158,0.0,0.0,74,0.00,OVC,,0.00,WeatherDisplay:10.37,2013-09-17 23:16:00,
2013-09-17 18:21:00,55.8,47.6,30.17,SSE,158,0.0,0.0,74,0.00,OVC,,0.00,WeatherDisplay:10.37,2013-09-17 23:21:00,
2013-09-17 18:26:00,55.8,47.6,30.17,SSE,158,0.0,0.0,74,0.00,OVC,,0.00,WeatherDisplay:10.37,2013-09-17 23:26:00,
2013-09-17 18:31:00,55.8,47.6,30.17,SSE,158,0.0,0.0,74,0.00,OVC,,0.00,WeatherDisplay:10.37,2013-09-17 23:31:00,
2013-09-17 18:36:00,55.8,47.6,30.17,SSE,158,0.0,0.0,74,0.00,OVC,,0.00,WeatherDisplay:10.37,2013-09-17 23:36:00,
2013-09-17 18:41:00,55.8,47.6,30.17,SSE,158,0.0,0.0,74,0.00,OVC,,0.00,WeatherDisplay:10.37,2013-09-17 23:41:00,
2013-09-17 18:46:00,55.8,47.6,30.17,SSE,158,0.0,0.0,74,0.00,OVC,,0.00,WeatherDisplay:10.37,2013-09-17 23:46:00,
2013-09-17 18:51:00,55.8,47.6,30.17,SSE,158,0.0,0.0,74,0.00,OVC,,0.00,WeatherDisplay:10.37,2013-09-17 23:51:00,
2013-09-17 18:56:00,55.8,47.6,30.17,SSE,158,0.0,0.0,74,0.00,OVC,,0.00,WeatherDisplay:10.37,2013-09-17 23:56:00,
2013-09-17 19:01:00,55.8,47.6,30.17,SSE,158,0.0,0.0,74,0.00,OVC,,0.00,WeatherDisplay:10.37,2013-09-18 00:01:00,
2013-09-17 19:06:00,55.8,47.6,30.17,SSE,158,0.0,0.0,74,0.00,OVC,,0.00,WeatherDisplay:10.37,2013-09-18 00:06:00,
2013-09-17 19:11:00,55.8,47.6,30.17,SSE,158,0.0,0.0,74,0.00,OVC,,0.00,WeatherDisplay:10.37,2013-09-18 00:11:00,
2013-09-17 19:16:00,55.8,47.6,30.17,SSE,158,0.0,0.0,74,0.00,OVC,,0.00,WeatherDisplay:10.37,2013-09-18 00:16:00,
2013-09-17 19:21:00,55.8,47.6,30.17,SSE,158,0.0,0.0,74,0.00,OVC,,0.00,WeatherDisplay:10.37,2013-09-18 00:21:00,
2013-09-17 19:26:00,55.8,47.6,30.17,SSE,158,0.0,0.0,74,0.00,OVC,,0.00,WeatherDisplay:10.37,2013-09-18 00:26:00,
2013-09-17 19:31:00,55.8,47.6,30.17,SSE,158,0.0,0.0,74,0.00,OVC,,0.00,WeatherDisplay:10.37,2013-09-18 00:31:00,
2013-09-17 19:36:00,55.8,47.6,30.17,SSE,158,0.0,0.0,74,0.00,OVC,,0.00,WeatherDisplay:10.37,2013-09-18 00:36:00,
2013-09-17 19:41:00,55.8,47.6,30.17,SSE,158,0.0,0.0,74,0.00,OVC,,0.00,WeatherDisplay:10.37,2013-09-18 00:41:00,
2013-09-17 19:46:00,55.8,47.6,30.17,SSE,158,0.0,0.0,74,0.00,OVC,,0.00,WeatherDisplay:10.37,2013-09-18 00:46:00,
2013-09-17 19:51:00,55.8,47.6,30.17,SSE,158,0.0,0.0,74,0.00,OVC,,0.00,WeatherDisplay:10.37,2013-09-18 00:51:00,
2013-09-17 19:56:00,55.8,47.6,30.17,SSE,158,0.0,0.0,74,0.00,OVC,,0.00,WeatherDisplay:10.37,2013-09-18 00:56:00,
2013-09-17 20:01:00,55.8,47.6,30.17,SSE,158,0.0,0.0,74,0.00,OVC,,0.00,WeatherDisplay:10.37,2013-09-18 01:01:00,
2013-09-17 20:06:00,55.8,47.6,30.17,SSE,158,0.0,0.0,74,0.00,OVC,,0.00,WeatherDisplay:10.37,2013-09-18 01:06:00,
2013-09-17 20:11:00,55.8,47.6,30.17,SSE,158,0.0,0.0,74,0.00,OVC,,0.00,WeatherDisplay:10.37,2013-09-18 01:11:00,
2013-09-17 20:16:00,55.8,47.6,30.17,SSE,158,0.0,0.0,74,0.00,OVC,,0.00,WeatherDisplay:10.37,2013-09-18 01:16:00,
2013-09-17 20:21:00,55.8,47.6,30.17,SSE,158,0.0,0.0,74,0.00,OVC,,0.00,WeatherDisplay:10.37,2013-09-18 01:21:00,
2013-09-17 20:26:00,55.8,47.6,30.17,SSE,158,0.0,0.0,74,0.00,OVC,,0.00,WeatherDisplay:10.37,2013-09-18 01:26:00,
2013-09-17 20:31:00,55.8,47.6,30.17,SSE,158,0.0,0.0,74,0.00,OVC,,0.00,WeatherDisplay:10.37,2013-09-18 01:31:00,
2013-09-17 20:36:00,55.8,47.6,30.17,SSE,158,0.0,0.0,74,0.00,OVC,,0.00,WeatherDisplay:10.37,2013-09-18 01:36:00,
2013-09-17 20:41:00,55.8,47.6,30.17,SSE,158,0.0,0.0,74,0.00,OVC,,0.00,WeatherDisplay:10.37,2013-09-18 01:41:00,
2013-09-17 20:46:00,55.8,47.6,30.17,SSE,158,0.0,0.0,74,0.00,OVC,,0.00,WeatherDisplay:10.37,2013-09-18 01:46:00,
2013-09-17 20:51:00,55.8,47.6,30.17,SSE,158,0.0,0.0,74,0.00,OVC,,0.00,WeatherDisplay:10.37,2013-09-18 01:51:00,
2013-09-17 20:56:00,55.8,47.6,30.17,SSE,158,0.0,0.0,74,0.00,OVC,,0.00,WeatherDisplay:10.37,2013-09-18 01:56:00,
2013-09-17 21:01:00,55.8,47.6,30.17,SSE,158,0.0,0.0,74,0.00,OVC,,0.00,WeatherDisplay:10.37,2013-09-18 02:01:00,
2013-09-17 21:06:00,55.8,47.6,30.17,SSE,158,0.0,0.0,74,0.00,OVC,,0.00,WeatherDisplay:10.37,2013-09-18 02:06:00,
2013-09-17 21:11:00,55.8,47.6,30.17,SSE,158,0.0,0.0,74,0.00,OVC,,0.00,WeatherDisplay:10.37,2013-09-18 02:11:00,
2013-09-17 21:16:00,55.8,47.6,30.17,SSE,158,0.0,0.0,74,0.00,OVC,,0.00,WeatherDisplay:10.37,2013-09-18 02:16:00,
2013-09-17 21:21:00,55.8,47.6,30.17,SSE,158,0.0,0.0,74,0.00,OVC,,0.00,WeatherDisplay:10.37,2013-09-18 02:21:00,
2013-09-17 21:26:00,55.8,47.6,30.17,SSE,158,0.0,0.0,74,0.00,OVC,,0.00,WeatherDisplay:10.37,2013-09-18 02:26:00,
2013-09-17 21:31:00,55.8,47.6,30.17,SSE,158,0.0,0.0,74,0.00,OVC,,0.00,WeatherDisplay:10.37,2013-09-18 02:31:00,
2013-09-17 21:36:00,55.8,47.6,30.17,SSE,158,0.0,0.0,74,0.00,OVC,,0.00,WeatherDisplay:10.37,2013-09-18 02:36:00,
2013-09-17 21:41:00,55.8,47.6,30.17,SSE,158,0.0,0.0,74,0.00,OVC,,0.00,WeatherDisplay:10.37,2013-09-18 02:41:00,
2013-09-17 21:46:00,55.8,47.6,30.17,SSE,158,0.0,0.0,74,0.00,OVC,,0.00,WeatherDisplay:10.37,2013-09-18 02:46:00,
2013-09-17 21:51:00,55.8,47.6,30.17,SSE,158,0.0,0.0,74,0.00,OVC,,0.00,WeatherDisplay:10.37,2013-09-18 02:51:00,
2013-09-17 21:56:00,55.8,47.6,30.17,SSE,158,0.0,0.0,74,0.00,OVC,,0.00,WeatherDisplay:10.37,2013-09-18 02:56:00,
2013-09-17 22:01:00,55.8,47.6,30.17,SSE,158,0.0,0.0,74,0.00,OVC,,0.00,WeatherDisplay:10.37,2013-09-18 03:01:00,
2013-09-17 22:06:00,55.8,47.6,30.17,SSE,158,0.0,0.0,74,0.00,OVC,,0.00,WeatherDisplay:10.37,2013-09-18 03:06:00,
2013-09-17 22:11:00,55.8,47.6,30.17,SSE,158,0.0,0.0,74,0.00,OVC,,0.00,WeatherDisplay:10.37,2013-09-18 03:11:00,
2013-09-17 22:16:00,55.8,47.6,30.17,SSE,158,0.0,0.0,74,0.00,OVC,,0.00,WeatherDisplay:10.37,2013-09-18 03:16:00,
2013-09-17 22:21:00,55.8,47.6,30.17,SSE,158,0.0,0.0,74,0.00, +RA,,0.00,WeatherDisplay:10.37,2013-09-18 03:21:00,
2013-09-17 22:26:00,55.8,47.6,30.17,SSE,158,0.0,0.0,74,0.00, +RA,,0.00,WeatherDisplay:10.37,2013-09-18 03:26:00,
2013-09-17 22:31:00,55.8,47.6,30.17,SSE,158,0.0,0.0,74,0.00, +RA,,0.00,WeatherDisplay:10.37,2013-09-18 03:31:00,
2013-09-17 22:36:00,55.8,47.6,30.17,SSE,158,0.0,0.0,74,0.00, +RA,,0.00,WeatherDisplay:10.37,2013-09-18 03:36:00,
2013-09-17 22:41:00,55.8,47.6,30.17,SSE,158,0.0,0.0,74,0.00,OVC,,0.00,WeatherDisplay:10.37,2013-09-18 03:41:00,
2013-09-17 22:46:00,55.8,47.6,30.17,SSE,158,0.0,0.0,74,0.00,OVC,,0.00,WeatherDisplay:10.37,2013-09-18 03:46:00,
2013-09-17 22:51:00,55.8,47.6,30.17,SSE,158,0.0,0.0,74,0.00,OVC,,0.00,WeatherDisplay:10.37,2013-09-18 03:51:00,
2013-09-17 22:56:00,55.8,47.6,30.17,SSE,158,0.0,0.0,74,0.00,OVC,,0.00,WeatherDisplay:10.37,2013-09-18 03:56:00,
2013-09-17 23:01:00,55.8,47.6,30.17,SSE,158,0.0,0.0,74,0.00,OVC,,0.00,WeatherDisplay:10.37,2013-09-18 04:01:00,
2013-09-17 23:02:00,55.8,47.6,30.17,SSE,158,0.0,0.0,74,0.00,OVC,,0.00,WeatherDisplay:10.37,2013-09-18 04:02:00,
2013-09-17 23:03:00,55.8,47.6,30.17,SSE,158,0.0,0.0,74,0.00,OVC,,0.00,WeatherDisplay:10.37,2013-09-18 04:03:00,
2013-09-17 23:08:00,55.8,47.6,30.17,SSE,158,0.0,0.0,74,0.00,OVC,,0.00,WeatherDisplay:10.37,2013-09-18 04:08:00,
2013-09-17 23:13:00,55.8,47.6,30.17,SSE,158,0.0,0.0,74,0.00,OVC,,0.00,WeatherDisplay:10.37,2013-09-18 04:13:00,
2013-09-17 23:18:00,55.8,47.6,30.17,SSE,158,0.0,0.0,74,0.00,OVC,,0.00,WeatherDisplay:10.37,2013-09-18 04:18:00,
2013-09-17 23:23:00,55.8,47.6,30.17,SSE,158,0.0,0.0,74,0.00,OVC,,0.00,WeatherDisplay:10.37,2013-09-18 04:23:00,
2013-09-17 23:28:00,55.8,47.6,30.17,SSE,158,0.0,0.0,74,0.00,OVC,,0.00,WeatherDisplay:10.37,2013-09-18 04:28:00,
2013-09-17 23:33:00,55.8,47.6,30.17,SSE,158,0.0,0.0,74,0.00,OVC,,0.00,WeatherDisplay:10.37,2013-09-18 04:33:00,
2013-09-17 23:38:00,55.8,47.6,30.17,SSE,158,0.0,0.0,74,0.00,OVC,,0.00,WeatherDisplay:10.37,2013-09-18 04:38:00,
2013-09-17 23:43:00,55.8,47.6,30.17,SSE,158,0.0,0.0,74,0.00,OVC,,0.00,WeatherDisplay:10.37,2013-09-18 04:43:00,
2013-09-17 23:48:00,55.8,47.6,30.17,SSE,158,0.0,0.0,74,0.00,OVC,,0.00,WeatherDisplay:10.37,2013-09-18 04:48:00,
2013-09-17 23:53:00,55.8,47.6,30.17,SSE,158,0.0,0.0,74,0.00, +DZ,,0.00,WeatherDisplay:10.37,2013-09-18 04:53:00,
2013-09-17 23:58:00,55.8,47.6,30.17,SSE,158,0.0,0.0,74,0.00, +DZ,,0.00,WeatherDisplay:10.37,2013-09-18 04:58:00,